sensor_id;sensor_type;location;lat;lon;timestamp;pressure;altitude;pressure_sealevel;temperature;humidity
21547;BME280;41275;51.912;4.388;2022-12-08T00:02:25;101130.22;;;11.37;53.65
21547;BME280;41275;51.912;4.388;2022-12-08T00:07:46;101117.75;;;11.37;53.46
21547;BME280;41275;51.912;4.388;2022-12-08T00:13:26;101105.00;;;11.46;53.25
21547;BME280;41275;51.912;4.388;2022-12-08T00:18:47;101100.19;;;11.54;53.57
21547;BME280;41275;51.912;4.388;2022-12-08T00:24:09;101090.88;;;11.52;53.66
21547;BME280;41275;51.912;4.388;2022-12-08T00:29:30;101077.00;;;11.50;53.62
21547;BME280;41275;51.912;4.388;2022-12-08T00:34:51;101064.22;;;11.47;53.89
21547;BME280;41275;51.912;4.388;2022-12-08T00:40:12;101057.28;;;11.46;53.82
21547;BME280;41275;51.912;4.388;2022-12-08T00:45:33;101054.19;;;11.49;53.95
21547;BME280;41275;51.912;4.388;2022-12-08T00:50:55;101069.78;;;11.57;54.09
21547;BME280;41275;51.912;4.388;2022-12-08T00:56:16;101044.66;;;11.60;54.06
21547;BME280;41275;51.912;4.388;2022-12-08T01:01:37;101033.38;;;11.64;53.86
21547;BME280;41275;51.912;4.388;2022-12-08T01:06:58;101033.13;;;11.54;53.84
21547;BME280;41275;51.912;4.388;2022-12-08T01:12:19;101027.94;;;11.59;53.89
21547;BME280;41275;51.912;4.388;2022-12-08T01:17:41;101038.78;;;11.69;53.57
21547;BME280;41275;51.912;4.388;2022-12-08T01:23:02;101052.03;;;11.58;53.34
21547;BME280;41275;51.912;4.388;2022-12-08T01:28:23;101053.41;;;11.18;53.78
21547;BME280;41275;51.912;4.388;2022-12-08T01:33:45;101043.31;;;10.97;53.65
21547;BME280;41275;51.912;4.388;2022-12-08T01:39:09;101045.97;;;10.78;54.01
21547;BME280;41275;51.912;4.388;2022-12-08T01:49:54;101023.06;;;10.84;53.88
21547;BME280;41275;51.912;4.388;2022-12-08T01:55:19;101021.75;;;10.93;53.94
21547;BME280;41275;51.912;4.388;2022-12-08T02:00:42;101001.50;;;10.99;53.68
21547;BME280;41275;51.912;4.388;2022-12-08T02:06:04;101001.44;;;11.05;53.89
21547;BME280;41275;51.912;4.388;2022-12-08T02:11:26;101002.78;;;11.08;53.82
21547;BME280;41275;51.912;4.388;2022-12-08T02:28:25;101009.19;;;10.89;53.51
21547;BME280;41275;51.912;4.388;2022-12-08T02:39:49;100994.84;;;11.08;53.31
21547;BME280;41275;51.912;4.388;2022-12-08T02:45:21;100979.66;;;11.03;52.75
21547;BME280;41275;51.912;4.388;2022-12-08T02:50:45;100968.34;;;10.66;54.04
21547;BME280;41275;51.912;4.388;2022-12-08T02:56:37;100955.09;;;10.66;54.03
21547;BME280;41275;51.912;4.388;2022-12-08T03:02:18;100954.56;;;10.76;53.94
21547;BME280;41275;51.912;4.388;2022-12-08T03:07:52;100945.59;;;10.77;54.05
21547;BME280;41275;51.912;4.388;2022-12-08T03:13:20;100947.22;;;10.78;53.76
21547;BME280;41275;51.912;4.388;2022-12-08T03:18:48;100927.69;;;10.91;54.08
21547;BME280;41275;51.912;4.388;2022-12-08T03:24:11;100929.16;;;10.87;54.21
21547;BME280;41275;51.912;4.388;2022-12-08T03:29:35;100925.84;;;10.91;54.16
21547;BME280;41275;51.912;4.388;2022-12-08T03:34:58;100940.41;;;11.00;54.06
21547;BME280;41275;51.912;4.388;2022-12-08T03:40:21;100930.41;;;10.84;54.24
21547;BME280;41275;51.912;4.388;2022-12-08T03:45:42;100916.53;;;10.40;53.63
21547;BME280;41275;51.912;4.388;2022-12-08T03:51:03;100936.84;;;10.28;53.87
21547;BME280;41275;51.912;4.388;2022-12-08T03:56:34;100921.47;;;10.37;53.47
21547;BME280;41275;51.912;4.388;2022-12-08T04:01:56;100905.22;;;10.33;53.22
21547;BME280;41275;51.912;4.388;2022-12-08T04:07:17;100905.97;;;10.22;52.81
21547;BME280;41275;51.912;4.388;2022-12-08T04:12:38;100905.91;;;10.10;53.21
21547;BME280;41275;51.912;4.388;2022-12-08T04:17:59;100917.13;;;10.05;53.26
21547;BME280;41275;51.912;4.388;2022-12-08T04:23:21;100893.91;;;10.07;52.46
21547;BME280;41275;51.912;4.388;2022-12-08T04:28:42;100907.00;;;10.02;52.47
21547;BME280;41275;51.912;4.388;2022-12-08T04:34:03;100901.63;;;9.91;52.75
21547;BME280;41275;51.912;4.388;2022-12-08T04:39:24;100873.94;;;9.93;52.99
21547;BME280;41275;51.912;4.388;2022-12-08T04:44:46;100882.09;;;9.92;53.69
21547;BME280;41275;51.912;4.388;2022-12-08T04:50:07;100883.50;;;9.94;54.04
21547;BME280;41275;51.912;4.388;2022-12-08T04:55:28;100868.44;;;9.95;53.80
21547;BME280;41275;51.912;4.388;2022-12-08T05:00:50;100867.53;;;10.01;54.06
21547;BME280;41275;51.912;4.388;2022-12-08T05:06:12;100870.78;;;10.03;54.00
21547;BME280;41275;51.912;4.388;2022-12-08T05:11:34;100855.66;;;10.10;54.16
21547;BME280;41275;51.912;4.388;2022-12-08T05:16:55;100856.53;;;10.22;54.23
21547;BME280;41275;51.912;4.388;2022-12-08T05:22:16;100857.63;;;10.33;54.27
21547;BME280;41275;51.912;4.388;2022-12-08T05:27:37;100857.19;;;10.36;54.30
21547;BME280;41275;51.912;4.388;2022-12-08T05:32:58;100862.47;;;10.36;54.45
21547;BME280;41275;51.912;4.388;2022-12-08T05:38:20;100867.31;;;10.39;54.02
21547;BME280;41275;51.912;4.388;2022-12-08T05:43:41;100854.31;;;10.38;53.84
21547;BME280;41275;51.912;4.388;2022-12-08T05:49:02;100860.63;;;10.37;53.70
21547;BME280;41275;51.912;4.388;2022-12-08T05:54:24;100863.59;;;10.28;53.86
21547;BME280;41275;51.912;4.388;2022-12-08T05:59:45;100869.53;;;10.05;53.50
21547;BME280;41275;51.912;4.388;2022-12-08T06:05:06;100870.06;;;9.96;53.67
21547;BME280;41275;51.912;4.388;2022-12-08T06:10:28;100879.75;;;9.83;53.06
21547;BME280;41275;51.912;4.388;2022-12-08T06:15:50;100876.06;;;9.66;53.42
21547;BME280;41275;51.912;4.388;2022-12-08T06:21:12;100880.25;;;9.55;54.40
21547;BME280;41275;51.912;4.388;2022-12-08T06:26:34;100876.78;;;9.55;53.95
21547;BME280;41275;51.912;4.388;2022-12-08T06:31:55;100867.56;;;9.64;54.49
21547;BME280;41275;51.912;4.388;2022-12-08T06:37:20;100870.03;;;9.59;54.61
21547;BME280;41275;51.912;4.388;2022-12-08T06:42:43;100866.22;;;9.55;55.33
21547;BME280;41275;51.912;4.388;2022-12-08T06:48:04;100858.06;;;9.56;54.76
21547;BME280;41275;51.912;4.388;2022-12-08T06:53:26;100867.19;;;9.61;54.62
21547;BME280;41275;51.912;4.388;2022-12-08T06:58:47;100860.84;;;9.62;55.33
21547;BME280;41275;51.912;4.388;2022-12-08T07:04:08;100856.75;;;9.66;55.33
21547;BME280;41275;51.912;4.388;2022-12-08T07:09:29;100860.38;;;9.71;55.06
21547;BME280;41275;51.912;4.388;2022-12-08T07:14:50;100838.63;;;9.69;55.64
21547;BME280;41275;51.912;4.388;2022-12-08T07:20:12;100850.50;;;9.78;55.09
21547;BME280;41275;51.912;4.388;2022-12-08T07:25:34;100850.59;;;9.72;55.41
21547;BME280;41275;51.912;4.388;2022-12-08T07:30:55;100860.56;;;9.70;55.45
21547;BME280;41275;51.912;4.388;2022-12-08T07:36:17;100844.44;;;9.59;55.62
21547;BME280;41275;51.912;4.388;2022-12-08T07:41:38;100848.81;;;9.66;55.53
21547;BME280;41275;51.912;4.388;2022-12-08T07:46:59;100848.81;;;9.66;55.29
21547;BME280;41275;51.912;4.388;2022-12-08T07:52:21;100841.41;;;9.74;54.86
21547;BME280;41275;51.912;4.388;2022-12-08T07:57:43;100842.81;;;9.77;55.05
21547;BME280;41275;51.912;4.388;2022-12-08T08:03:04;100841.94;;;9.83;54.93
21547;BME280;41275;51.912;4.388;2022-12-08T08:08:26;100833.41;;;9.81;54.96
21547;BME280;41275;51.912;4.388;2022-12-08T08:13:48;100836.44;;;9.84;54.89
21547;BME280;41275;51.912;4.388;2022-12-08T08:19:09;100836.44;;;9.84;54.16
21547;BME280;41275;51.912;4.388;2022-12-08T08:24:31;100833.28;;;9.94;54.15
21547;BME280;41275;51.912;4.388;2022-12-08T08:29:52;100826.66;;;10.03;54.68
21547;BME280;41275;51.912;4.388;2022-12-08T08:35:13;100839.31;;;10.13;53.91
21547;BME280;41275;51.912;4.388;2022-12-08T08:40:35;100834.63;;;10.15;53.79
21547;BME280;41275;51.912;4.388;2022-12-08T08:45:57;100854.31;;;10.19;53.84
21547;BME280;41275;51.912;4.388;2022-12-08T08:51:19;100842.69;;;10.20;54.38
21547;BME280;41275;51.912;4.388;2022-12-08T08:56:40;100882.91;;;10.29;53.73
21547;BME280;41275;51.912;4.388;2022-12-08T09:02:01;100884.34;;;9.51;53.40
21547;BME280;41275;51.912;4.388;2022-12-08T09:07:22;100885.44;;;8.87;53.89
21547;BME280;41275;51.912;4.388;2022-12-08T09:12:44;100883.84;;;8.48;54.05
21547;BME280;41275;51.912;4.388;2022-12-08T09:18:05;100895.25;;;8.28;55.12
21547;BME280;41275;51.912;4.388;2022-12-08T09:23:26;100886.59;;;8.15;54.49
21547;BME280;41275;51.912;4.388;2022-12-08T09:28:48;100888.84;;;8.11;55.02
21547;BME280;41275;51.912;4.388;2022-12-08T09:34:10;100884.38;;;8.18;55.33
21547;BME280;41275;51.912;4.388;2022-12-08T09:39:32;100882.69;;;8.30;55.25
21547;BME280;41275;51.912;4.388;2022-12-08T09:44:58;100881.84;;;8.36;56.07
21547;BME280;41275;51.912;4.388;2022-12-08T09:50:33;100876.03;;;8.66;55.46
21547;BME280;41275;51.912;4.388;2022-12-08T09:56:25;100856.84;;;8.84;55.58
21547;BME280;41275;51.912;4.388;2022-12-08T10:01:58;100857.44;;;9.11;55.34
21547;BME280;41275;51.912;4.388;2022-12-08T10:07:37;100848.00;;;9.47;55.07
21547;BME280;41275;51.912;4.388;2022-12-08T10:13:19;100846.63;;;9.81;55.19
21547;BME280;41275;51.912;4.388;2022-12-08T10:18:42;100854.63;;;10.11;55.27
21547;BME280;41275;51.912;4.388;2022-12-08T10:24:11;100860.28;;;10.15;55.02
21547;BME280;41275;51.912;4.388;2022-12-08T10:29:41;100867.69;;;10.24;55.38
21547;BME280;41275;51.912;4.388;2022-12-08T10:35:08;100858.88;;;10.12;55.32
21547;BME280;41275;51.912;4.388;2022-12-08T10:40:35;100847.78;;;10.22;55.64
21547;BME280;41275;51.912;4.388;2022-12-08T10:46:08;100844.19;;;10.35;55.01
21547;BME280;41275;51.912;4.388;2022-12-08T10:56:55;100830.69;;;10.54;54.36
21547;BME280;41275;51.912;4.388;2022-12-08T11:02:18;100806.88;;;10.54;54.43
21547;BME280;41275;51.912;4.388;2022-12-08T11:07:46;100788.47;;;10.71;53.72
21547;BME280;41275;51.912;4.388;2022-12-08T11:13:15;100769.16;;;10.82;53.50
21547;BME280;41275;51.912;4.388;2022-12-08T11:18:42;100780.91;;;10.87;53.39
21547;BME280;41275;51.912;4.388;2022-12-08T11:24:27;100776.78;;;11.02;53.70
21547;BME280;41275;51.912;4.388;2022-12-08T11:29:49;100767.78;;;11.15;53.16
21547;BME280;41275;51.912;4.388;2022-12-08T11:35:18;100759.28;;;11.25;52.82
21547;BME280;41275;51.912;4.388;2022-12-08T11:40:43;100767.66;;;11.34;52.77
21547;BME280;41275;51.912;4.388;2022-12-08T11:46:11;100770.31;;;11.22;52.71
21547;BME280;41275;51.912;4.388;2022-12-08T11:51:56;100789.06;;;10.73;52.29
21547;BME280;41275;51.912;4.388;2022-12-08T11:57:20;100807.31;;;10.51;53.41
21547;BME280;41275;51.912;4.388;2022-12-08T12:02:48;100795.50;;;10.66;53.20
21547;BME280;41275;51.912;4.388;2022-12-08T12:20:04;100748.09;;;11.11;53.31
21547;BME280;41275;51.912;4.388;2022-12-08T12:25:31;100745.69;;;11.10;53.00
21547;BME280;41275;51.912;4.388;2022-12-08T12:31:04;100759.47;;;11.23;53.04
21547;BME280;41275;51.912;4.388;2022-12-08T12:36:26;100767.91;;;11.32;53.13
21547;BME280;41275;51.912;4.388;2022-12-08T12:47:11;100727.72;;;11.12;52.93
21547;BME280;41275;51.912;4.388;2022-12-08T12:57:56;100707.03;;;10.97;53.62
21547;BME280;41275;51.912;4.388;2022-12-08T13:03:18;100719.31;;;10.91;53.69
21547;BME280;41275;51.912;4.388;2022-12-08T13:08:49;100712.16;;;12.75;54.38
21547;BME280;41275;51.912;4.388;2022-12-08T13:14:29;100710.28;;;15.09;52.19
21547;BME280;41275;51.912;4.388;2022-12-08T13:19:54;100725.47;;;15.08;48.18
21547;BME280;41275;51.912;4.388;2022-12-08T13:31:00;100721.63;;;12.20;48.30
21547;BME280;41275;51.912;4.388;2022-12-08T13:36:30;100720.03;;;11.50;49.31
21547;BME280;41275;51.912;4.388;2022-12-08T13:41:57;100725.75;;;11.07;50.01
21547;BME280;41275;51.912;4.388;2022-12-08T13:47:32;100699.94;;;10.32;49.62
21547;BME280;41275;51.912;4.388;2022-12-08T13:52:58;100680.72;;;9.83;50.80
21547;BME280;41275;51.912;4.388;2022-12-08T13:58:28;100685.78;;;9.84;51.65
21547;BME280;41275;51.912;4.388;2022-12-08T14:03:52;100680.84;;;9.88;52.06
21547;BME280;41275;51.912;4.388;2022-12-08T14:09:18;100693.13;;;9.82;52.62
21547;BME280;41275;51.912;4.388;2022-12-08T14:14:42;100686.94;;;9.89;52.93
21547;BME280;41275;51.912;4.388;2022-12-08T14:25:34;100693.06;;;10.01;53.49
21547;BME280;41275;51.912;4.388;2022-12-08T14:30:55;100700.16;;;9.89;53.51
21547;BME280;41275;51.912;4.388;2022-12-08T14:36:17;100703.66;;;9.71;53.11
21547;BME280;41275;51.912;4.388;2022-12-08T14:41:57;100703.44;;;9.54;53.96
21547;BME280;41275;51.912;4.388;2022-12-08T14:47:18;100697.97;;;9.37;54.21
21547;BME280;41275;51.912;4.388;2022-12-08T14:52:44;100694.88;;;9.40;54.03
21547;BME280;41275;51.912;4.388;2022-12-08T14:58:05;100677.31;;;9.46;53.75
21547;BME280;41275;51.912;4.388;2022-12-08T15:03:29;100681.91;;;9.69;54.30
21547;BME280;41275;51.912;4.388;2022-12-08T15:08:54;100677.13;;;9.77;54.11
21547;BME280;41275;51.912;4.388;2022-12-08T15:14:27;100681.16;;;9.80;54.31
21547;BME280;41275;51.912;4.388;2022-12-08T15:25:45;100673.16;;;9.87;54.73
21547;BME280;41275;51.912;4.388;2022-12-08T15:31:07;100679.63;;;10.02;53.93
21547;BME280;41275;51.912;4.388;2022-12-08T15:36:28;100667.91;;;9.98;54.48
21547;BME280;41275;51.912;4.388;2022-12-08T15:41:49;100662.53;;;9.75;53.89
21547;BME280;41275;51.912;4.388;2022-12-08T15:47:19;100664.78;;;9.59;54.57
21547;BME280;41275;51.912;4.388;2022-12-08T15:52:41;100664.91;;;9.46;54.79
21547;BME280;41275;51.912;4.388;2022-12-08T15:58:02;100668.31;;;9.35;54.41
21547;BME280;41275;51.912;4.388;2022-12-08T16:03:25;100662.69;;;9.31;55.05
21547;BME280;41275;51.912;4.388;2022-12-08T16:08:48;100661.84;;;9.31;55.02
21547;BME280;41275;51.912;4.388;2022-12-08T16:14:09;100665.91;;;9.33;55.29
21547;BME280;41275;51.912;4.388;2022-12-08T16:19:30;100667.97;;;9.31;54.58
21547;BME280;41275;51.912;4.388;2022-12-08T16:24:52;100667.19;;;9.43;54.47
21547;BME280;41275;51.912;4.388;2022-12-08T16:30:15;100667.44;;;9.41;54.43
21547;BME280;41275;51.912;4.388;2022-12-08T16:35:37;100654.16;;;9.29;54.34
21547;BME280;41275;51.912;4.388;2022-12-08T16:40:58;100644.72;;;9.22;54.37
21547;BME280;41275;51.912;4.388;2022-12-08T16:46:38;100643.72;;;9.34;54.12
21547;BME280;41275;51.912;4.388;2022-12-08T16:51:59;100659.16;;;9.38;54.07
21547;BME280;41275;51.912;4.388;2022-12-08T16:57:21;100654.28;;;9.34;54.10
21547;BME280;41275;51.912;4.388;2022-12-08T17:02:42;100659.56;;;9.34;53.94
21547;BME280;41275;51.912;4.388;2022-12-08T17:08:03;100664.03;;;9.52;54.22
21547;BME280;41275;51.912;4.388;2022-12-08T17:13:24;100656.28;;;9.69;53.92
21547;BME280;41275;51.912;4.388;2022-12-08T17:18:46;100633.06;;;9.59;53.80
21547;BME280;41275;51.912;4.388;2022-12-08T17:24:07;100644.28;;;9.25;53.95
21547;BME280;41275;51.912;4.388;2022-12-08T17:29:30;100635.19;;;9.21;54.12
21547;BME280;41275;51.912;4.388;2022-12-08T17:34:52;100641.47;;;9.38;53.59
21547;BME280;41275;51.912;4.388;2022-12-08T17:40:13;100630.50;;;9.53;54.44
21547;BME280;41275;51.912;4.388;2022-12-08T17:45:35;100629.06;;;9.69;54.19
21547;BME280;41275;51.912;4.388;2022-12-08T17:51:00;100617.50;;;9.81;53.66
21547;BME280;41275;51.912;4.388;2022-12-08T17:56:21;100618.78;;;9.79;53.83
21547;BME280;41275;51.912;4.388;2022-12-08T18:01:42;100615.47;;;9.53;54.20
21547;BME280;41275;51.912;4.388;2022-12-08T18:07:04;100607.38;;;9.18;54.20
21547;BME280;41275;51.912;4.388;2022-12-08T18:12:25;100605.34;;;9.02;54.43
21547;BME280;41275;51.912;4.388;2022-12-08T18:17:46;100595.59;;;9.02;55.45
21547;BME280;41275;51.912;4.388;2022-12-08T18:23:08;100584.22;;;9.02;55.67
21547;BME280;41275;51.912;4.388;2022-12-08T18:28:29;100578.66;;;9.10;55.78
21547;BME280;41275;51.912;4.388;2022-12-08T18:33:51;100579.94;;;9.19;55.25
21547;BME280;41275;51.912;4.388;2022-12-08T18:39:21;100590.34;;;9.32;55.11
21547;BME280;41275;51.912;4.388;2022-12-08T18:44:42;100592.13;;;9.20;55.57
21547;BME280;41275;51.912;4.388;2022-12-08T18:50:05;100594.63;;;9.15;54.97
21547;BME280;41275;51.912;4.388;2022-12-08T18:55:27;100596.03;;;9.18;55.13
21547;BME280;41275;51.912;4.388;2022-12-08T19:00:48;100590.44;;;9.26;55.07
21547;BME280;41275;51.912;4.388;2022-12-08T19:06:09;100600.97;;;9.44;55.22
21547;BME280;41275;51.912;4.388;2022-12-08T19:11:31;100601.94;;;9.62;55.72
21547;BME280;41275;51.912;4.388;2022-12-08T19:16:52;100595.97;;;9.66;55.17
21547;BME280;41275;51.912;4.388;2022-12-08T19:22:13;100593.28;;;9.54;55.44
21547;BME280;41275;51.912;4.388;2022-12-08T19:27:37;100607.41;;;9.48;55.48
21547;BME280;41275;51.912;4.388;2022-12-08T19:32:58;100612.63;;;9.37;55.17
21547;BME280;41275;51.912;4.388;2022-12-08T19:38:23;100619.25;;;9.27;55.21
21547;BME280;41275;51.912;4.388;2022-12-08T19:43:44;100628.88;;;9.22;55.10
21547;BME280;41275;51.912;4.388;2022-12-08T19:49:24;100624.94;;;9.13;55.32
21547;BME280;41275;51.912;4.388;2022-12-08T19:54:45;100624.84;;;9.01;55.21
21547;BME280;41275;51.912;4.388;2022-12-08T20:00:10;100624.34;;;8.92;55.26
21547;BME280;41275;51.912;4.388;2022-12-08T20:05:33;100622.44;;;8.81;55.90
21547;BME280;41275;51.912;4.388;2022-12-08T20:10:55;100634.09;;;8.73;55.39
21547;BME280;41275;51.912;4.388;2022-12-08T20:16:18;100637.59;;;8.67;55.58
21547;BME280;41275;51.912;4.388;2022-12-08T20:21:40;100653.25;;;8.62;55.11
21547;BME280;41275;51.912;4.388;2022-12-08T20:27:06;100648.03;;;8.55;55.25
21547;BME280;41275;51.912;4.388;2022-12-08T20:32:28;100649.13;;;8.48;54.92
21547;BME280;41275;51.912;4.388;2022-12-08T20:37:49;100665.22;;;8.40;55.28
21547;BME280;41275;51.912;4.388;2022-12-08T20:43:10;100667.44;;;8.36;55.63
21547;BME280;41275;51.912;4.388;2022-12-08T20:48:31;100670.72;;;8.31;55.29
21547;BME280;41275;51.912;4.388;2022-12-08T20:53:53;100664.50;;;8.26;55.02
21547;BME280;41275;51.912;4.388;2022-12-08T20:59:14;100668.63;;;8.15;55.31
21547;BME280;41275;51.912;4.388;2022-12-08T21:04:36;100672.72;;;8.11;55.74
21547;BME280;41275;51.912;4.388;2022-12-08T21:09:57;100671.91;;;8.10;56.14
21547;BME280;41275;51.912;4.388;2022-12-08T21:15:19;100683.69;;;8.08;55.28
21547;BME280;41275;51.912;4.388;2022-12-08T21:20:40;100680.66;;;8.04;55.94
21547;BME280;41275;51.912;4.388;2022-12-08T21:26:02;100700.34;;;8.02;55.78
21547;BME280;41275;51.912;4.388;2022-12-08T21:31:29;100697.53;;;7.97;56.22
21547;BME280;41275;51.912;4.388;2022-12-08T21:36:51;100706.69;;;7.94;56.12
21547;BME280;41275;51.912;4.388;2022-12-08T21:42:13;100702.41;;;7.93;55.74
21547;BME280;41275;51.912;4.388;2022-12-08T21:47:52;100703.28;;;7.87;55.48
21547;BME280;41275;51.912;4.388;2022-12-08T21:53:24;100709.19;;;7.82;55.79
21547;BME280;41275;51.912;4.388;2022-12-08T21:58:53;100710.81;;;7.77;56.03
21547;BME280;41275;51.912;4.388;2022-12-08T22:04:35;100709.03;;;7.71;55.97
21547;BME280;41275;51.912;4.388;2022-12-08T22:09:59;100706.00;;;7.67;56.33
21547;BME280;41275;51.912;4.388;2022-12-08T22:15:20;100697.91;;;7.62;56.35
21547;BME280;41275;51.912;4.388;2022-12-08T22:20:41;100701.59;;;7.54;55.89
21547;BME280;41275;51.912;4.388;2022-12-08T22:26:04;100703.63;;;7.52;56.36
21547;BME280;41275;51.912;4.388;2022-12-08T22:31:25;100706.69;;;7.49;56.47
21547;BME280;41275;51.912;4.388;2022-12-08T22:36:46;100691.53;;;7.38;56.04
21547;BME280;41275;51.912;4.388;2022-12-08T22:42:08;100701.66;;;7.34;56.68
21547;BME280;41275;51.912;4.388;2022-12-08T22:47:29;100700.69;;;7.29;56.84
21547;BME280;41275;51.912;4.388;2022-12-08T22:52:51;100695.44;;;7.22;56.67
21547;BME280;41275;51.912;4.388;2022-12-08T22:58:12;100687.97;;;7.12;56.49
21547;BME280;41275;51.912;4.388;2022-12-08T23:03:33;100697.47;;;7.07;56.30
21547;BME280;41275;51.912;4.388;2022-12-08T23:08:58;100699.47;;;7.18;56.43
21547;BME280;41275;51.912;4.388;2022-12-08T23:14:19;100693.41;;;7.18;56.28
21547;BME280;41275;51.912;4.388;2022-12-08T23:19:40;100689.53;;;7.27;56.53
21547;BME280;41275;51.912;4.388;2022-12-08T23:25:03;100703.28;;;7.35;56.77
21547;BME280;41275;51.912;4.388;2022-12-08T23:30:24;100703.41;;;7.60;56.48
21547;BME280;41275;51.912;4.388;2022-12-08T23:35:54;100703.53;;;7.72;56.21
21547;BME280;41275;51.912;4.388;2022-12-08T23:41:15;100705.13;;;7.80;56.89
21547;BME280;41275;51.912;4.388;2022-12-08T23:46:36;100700.81;;;7.92;56.44
21547;BME280;41275;51.912;4.388;2022-12-08T23:51:58;100695.56;;;7.85;56.37
21547;BME280;41275;51.912;4.388;2022-12-08T23:57:20;100701.47;;;7.81;56.01
